CheckWX is a tool to help pilots better visualize weather data.  It is not intended as a substitute for an official pre-flight weather briefing.

06:28:05 UTC

KMQJ METAR
Indianapolis Regional Airport
Indianapolis, Indiana, USA
Current

13 mins ago

KMQJ 230615Z AUTO 18006KT 10SM CLR 15/11 A2999 RMK AO1
Observed
Apr-23 @ 06:15 UTC
Wind
  • 180° at 6 KTS
Visibility
10 SM
Flight Rules
VFR
Cloud Levels
  • Clear skies
Temperature
15°C / 59°F
Dewpoint
11°C / 52°F
Humidity
77%
Altimeter
29.99" Hg
Pressure
1015.62 hPa
Previous

33 mins ago

KMQJ 230555Z AUTO 18006KT 10SM CLR 15/11 A3000 RMK AO1
Observed
Apr-23 @ 05:55 UTC
Wind
  • 180° at 6 KTS
Visibility
10 SM
Flight Rules
VFR
Cloud Levels
  • Clear skies
Temperature
15°C / 59°F
Dewpoint
11°C / 52°F
Humidity
77%
Altimeter
30" Hg
Pressure
1015.92 hPa
Previous

53 mins ago

KMQJ 230535Z AUTO 19007KT 10SM CLR 16/11 A3000 RMK AO1
Observed
Apr-23 @ 05:35 UTC
Wind
  • 190° at 7 KTS
Visibility
10 SM
Flight Rules
VFR
Cloud Levels
  • Clear skies
Temperature
16°C / 61°F
Dewpoint
11°C / 52°F
Humidity
72%
Altimeter
30" Hg
Pressure
1015.92 hPa